createdAt,value
2023-08-31T00:00:14.154Z,96.52
2023-08-31T00:03:02.672Z,96.42
2023-08-31T00:05:31.463Z,96.30
2023-08-31T00:07:59.959Z,96.42
2023-08-31T00:10:30.476Z,96.42
2023-08-31T00:12:58.794Z,96.43
2023-08-31T00:15:29.054Z,96.49
2023-08-31T00:17:57.567Z,96.66
2023-08-31T00:20:27.014Z,96.58
2023-08-31T00:22:55.470Z,96.69
2023-08-31T00:25:24.225Z,96.58
2023-08-31T00:27:54.390Z,96.53
2023-08-31T00:30:26.304Z,96.71
2023-08-31T00:32:54.731Z,96.88
2023-08-31T00:35:23.251Z,96.92
2023-08-31T00:37:52.598Z,97.06
2023-08-31T00:40:21.002Z,97.03
2023-08-31T00:42:49.314Z,97.08
2023-08-31T00:45:18.154Z,97.07
2023-08-31T00:47:47.918Z,97.09
2023-08-31T00:50:17.160Z,97.15
2023-08-31T00:52:45.654Z,97.34
2023-08-31T00:55:14.989Z,97.27
2023-08-31T00:57:43.820Z,97.39
2023-08-31T01:00:14.724Z,97.50
2023-08-31T01:02:54.461Z,97.73
2023-08-31T01:05:30.674Z,97.83
2023-08-31T01:08:09.164Z,97.96
2023-08-31T01:10:48.068Z,97.97
2023-08-31T01:13:20.290Z,98.07
2023-08-31T01:15:55.422Z,98.12
2023-08-31T01:18:26.245Z,98.04
2023-08-31T01:21:03.602Z,98.03
2023-08-31T01:23:46.830Z,98.00
2023-08-31T01:26:15.338Z,98.11
2023-08-31T01:28:44.289Z,97.95
2023-08-31T01:31:12.838Z,97.96
2023-08-31T01:33:41.954Z,97.90
2023-08-31T01:36:20.646Z,97.61
2023-08-31T01:38:53.582Z,97.56
2023-08-31T01:41:25.345Z,97.65
2023-08-31T01:43:54.478Z,97.56
2023-08-31T01:46:23.394Z,97.44
2023-08-31T01:48:51.914Z,97.44
2023-08-31T01:51:21.288Z,97.49
2023-08-31T01:53:49.637Z,97.72
2023-08-31T01:56:18.270Z,97.65
2023-08-31T01:58:46.953Z,97.93
2023-08-31T02:01:15.450Z,97.87
2023-08-31T02:03:44.103Z,97.69
2023-08-31T02:06:12.815Z,97.51
2023-08-31T02:08:44.760Z,97.33
2023-08-31T02:11:13.199Z,97.23
2023-08-31T02:13:42.976Z,97.22
2023-08-31T02:16:13.466Z,97.20
2023-08-31T02:18:41.786Z,97.23
2023-08-31T02:21:12.184Z,97.21
2023-08-31T02:23:43.647Z,97.44
2023-08-31T02:26:13.487Z,97.47
2023-08-31T02:28:41.923Z,97.39
2023-08-31T02:31:12.365Z,97.22
2023-08-31T02:33:41.049Z,97.34
2023-08-31T02:36:09.390Z,97.47
2023-08-31T02:38:37.811Z,97.44
2023-08-31T02:41:06.185Z,97.46
2023-08-31T02:43:34.662Z,97.60
2023-08-31T02:46:04.024Z,97.56
2023-08-31T02:48:34.491Z,97.72
2023-08-31T02:51:03.481Z,97.76
2023-08-31T02:53:32.676Z,97.63
2023-08-31T02:56:01.170Z,97.59
2023-08-31T02:58:30.164Z,97.48
2023-08-31T03:01:08.794Z,97.30
2023-08-31T03:03:37.622Z,97.30
2023-08-31T03:06:08.387Z,97.24
2023-08-31T03:08:37.231Z,97.33
2023-08-31T03:11:08.493Z,97.35
2023-08-31T03:13:38.172Z,97.62
2023-08-31T03:16:08.068Z,97.70
2023-08-31T03:18:36.455Z,97.99
2023-08-31T03:21:04.941Z,98.11
2023-08-31T03:23:33.388Z,98.27
2023-08-31T03:26:07.044Z,98.56
2023-08-31T03:28:35.483Z,98.82
2023-08-31T03:31:03.903Z,98.91
2023-08-31T03:33:32.901Z,99.26
2023-08-31T03:36:06.772Z,99.29
2023-08-31T03:38:37.931Z,99.39
2023-08-31T03:41:06.729Z,99.56
2023-08-31T03:43:35.497Z,99.55
2023-08-31T03:46:03.993Z,99.47
2023-08-31T03:48:32.473Z,99.65
2023-08-31T03:51:01.391Z,99.42
2023-08-31T03:53:29.894Z,99.39
2023-08-31T03:55:59.886Z,99.26
2023-08-31T03:58:28.637Z,99.32
2023-08-31T04:00:57.159Z,99.14
2023-08-31T04:03:26.378Z,99.04
2023-08-31T04:06:01.149Z,98.94
2023-08-31T04:08:31.540Z,98.81
2023-08-31T04:11:00.448Z,98.74
2023-08-31T04:13:28.899Z,98.47
2023-08-31T04:15:57.514Z,98.47
2023-08-31T04:18:26.121Z,98.36
2023-08-31T04:20:55.736Z,98.16
2023-08-31T04:23:24.433Z,98.18
2023-08-31T04:25:53.987Z,98.16
2023-08-31T04:28:22.389Z,98.06
2023-08-31T04:30:50.840Z,98.10
2023-08-31T04:33:19.359Z,98.31
2023-08-31T04:35:50.797Z,98.44
2023-08-31T04:38:19.163Z,98.53
2023-08-31T04:40:47.667Z,98.68
2023-08-31T04:43:16.156Z,98.70
2023-08-31T04:45:44.549Z,98.66
2023-08-31T04:48:14.964Z,98.81
2023-08-31T04:50:43.431Z,98.71
2023-08-31T04:53:12.070Z,98.68
2023-08-31T04:55:41.037Z,98.72
2023-08-31T04:58:09.423Z,98.76
2023-08-31T05:00:39.770Z,98.93
2023-08-31T05:03:08.184Z,98.95
2023-08-31T05:05:36.887Z,99.00
2023-08-31T05:08:07.291Z,99.05
2023-08-31T05:10:35.787Z,98.96
2023-08-31T05:13:05.027Z,99.04
2023-08-31T05:15:34.560Z,98.93
2023-08-31T05:18:04.069Z,98.91
2023-08-31T05:20:32.707Z,98.87
2023-08-31T05:23:01.066Z,98.91
2023-08-31T05:25:29.600Z,98.81
2023-08-31T05:27:57.972Z,98.70
2023-08-31T05:30:26.475Z,98.83
2023-08-31T05:32:55.210Z,98.75
2023-08-31T05:35:23.679Z,98.65
2023-08-31T05:37:52.010Z,98.36
2023-08-31T05:40:20.537Z,98.28
2023-08-31T05:42:48.934Z,98.36
2023-08-31T05:45:17.796Z,98.41
2023-08-31T05:47:46.501Z,98.24
2023-08-31T05:50:15.180Z,98.28
2023-08-31T05:52:44.888Z,98.27
2023-08-31T05:55:13.227Z,98.04
2023-08-31T05:57:41.615Z,97.66
2023-08-31T06:00:12.766Z,97.42
2023-08-31T06:02:41.216Z,97.26
2023-08-31T06:05:12.878Z,97.16
2023-08-31T06:07:41.464Z,97.00
2023-08-31T06:10:11.216Z,97.31
2023-08-31T06:12:39.762Z,96.70
2023-08-31T06:15:10.132Z,96.55
2023-08-31T06:17:39.184Z,96.08
2023-08-31T06:20:10.327Z,95.80
2023-08-31T06:22:38.805Z,95.71
2023-08-31T06:26:59.710Z,95.21
2023-08-31T06:29:28.161Z,95.04
2023-08-31T06:31:56.752Z,94.85
2023-08-31T06:34:25.225Z,94.56
2023-08-31T06:36:53.575Z,94.89
2023-08-31T06:39:21.955Z,94.66
2023-08-31T06:41:50.815Z,94.99
2023-08-31T06:44:19.438Z,94.75
2023-08-31T06:46:47.916Z,94.42
2023-08-31T06:49:16.351Z,94.50
2023-08-31T06:51:44.793Z,94.49
2023-08-31T06:54:13.130Z,94.00
2023-08-31T06:56:41.633Z,93.73
2023-08-31T06:59:10.164Z,92.88
2023-08-31T07:01:38.641Z,92.37
2023-08-31T07:04:08.102Z,91.95
2023-08-31T07:06:39.440Z,91.31
2023-08-31T07:09:08.989Z,91.24
2023-08-31T07:11:37.352Z,89.95
2023-08-31T07:14:05.926Z,89.57
2023-08-31T07:16:34.379Z,89.30
2023-08-31T07:19:03.881Z,88.42
2023-08-31T07:21:32.326Z,87.79
2023-08-31T07:24:01.740Z,87.33
2023-08-31T07:26:30.310Z,86.74
2023-08-31T07:29:00.583Z,85.92
2023-08-31T07:31:30.740Z,84.50
2023-08-31T07:33:59.370Z,83.56
2023-08-31T07:36:27.902Z,83.60
2023-08-31T07:38:56.279Z,82.85
2023-08-31T07:41:24.943Z,82.51
2023-08-31T07:44:03.477Z,80.68
2023-08-31T07:46:33.440Z,80.98
2023-08-31T07:49:04.800Z,80.83
2023-08-31T07:51:33.235Z,79.96
2023-08-31T07:54:03.859Z,78.78
2023-08-31T07:56:32.245Z,77.64
2023-08-31T07:59:00.584Z,77.98
2023-08-31T08:01:29.092Z,78.10
2023-08-31T08:03:59.824Z,78.41
2023-08-31T08:06:28.360Z,78.13
2023-08-31T08:08:56.956Z,77.85
2023-08-31T08:11:25.377Z,77.81
2023-08-31T08:13:54.292Z,77.49
2023-08-31T08:16:23.117Z,75.79
2023-08-31T08:18:53.542Z,75.09
2023-08-31T08:21:22.881Z,75.08
2023-08-31T08:23:52.958Z,74.18
2023-08-31T08:26:21.586Z,73.15
2023-08-31T08:28:50.134Z,72.88
2023-08-31T08:31:18.567Z,73.60
2023-08-31T08:33:46.992Z,71.88
2023-08-31T08:36:16.639Z,71.46
2023-08-31T08:38:45.063Z,70.85
2023-08-31T08:41:15.021Z,70.68
2023-08-31T08:43:46.281Z,69.28
2023-08-31T08:46:15.243Z,69.17
2023-08-31T08:48:45.417Z,69.42
2023-08-31T08:51:15.062Z,69.43
2023-08-31T08:53:44.645Z,69.84
2023-08-31T08:56:13.609Z,70.83
2023-08-31T08:58:42.227Z,70.82
2023-08-31T09:01:12.068Z,70.52
2023-08-31T09:03:40.508Z,68.99
2023-08-31T09:06:10.550Z,69.67
2023-08-31T09:08:41.780Z,69.64
2023-08-31T09:11:20.373Z,70.16
2023-08-31T09:13:49.401Z,70.59
2023-08-31T09:16:27.139Z,71.10
2023-08-31T09:18:55.866Z,71.02
2023-08-31T09:21:36.717Z,71.87
2023-08-31T09:24:08.452Z,72.02
2023-08-31T09:26:40.233Z,72.34
2023-08-31T09:29:09.096Z,72.38
2023-08-31T09:31:38.150Z,71.59
2023-08-31T09:34:07.416Z,71.28
2023-08-31T09:36:37.120Z,71.64
2023-08-31T09:39:07.306Z,70.78
2023-08-31T09:41:36.370Z,69.81
2023-08-31T09:44:18.259Z,69.93
2023-08-31T09:46:47.556Z,70.54
2023-08-31T09:49:17.565Z,70.76
2023-08-31T09:51:47.675Z,71.27
2023-08-31T09:54:19.009Z,72.14
2023-08-31T09:56:48.503Z,72.39
2023-08-31T09:59:18.136Z,71.94
2023-08-31T10:01:47.816Z,71.88
2023-08-31T10:04:17.283Z,71.74
2023-08-31T10:06:46.060Z,72.28
2023-08-31T10:09:15.693Z,72.53
2023-08-31T10:11:44.666Z,73.48
2023-08-31T10:14:14.638Z,73.44
2023-08-31T10:16:46.808Z,73.41
2023-08-31T10:19:15.369Z,73.72
2023-08-31T10:21:44.855Z,74.86
2023-08-31T10:24:13.444Z,74.88
2023-08-31T10:26:41.932Z,75.66
2023-08-31T10:29:29.480Z,76.37
2023-08-31T10:32:03.911Z,76.82
2023-08-31T10:34:39.595Z,77.43
2023-08-31T10:37:23.711Z,77.79
2023-08-31T10:40:08.954Z,77.79
2023-08-31T10:42:44.638Z,77.84
2023-08-31T10:45:14.684Z,77.41
2023-08-31T10:47:45.871Z,77.68
2023-08-31T10:50:21.366Z,77.97
2023-08-31T10:52:50.465Z,77.48
2023-08-31T10:55:19.034Z,77.52
2023-08-31T10:57:48.033Z,77.92
2023-08-31T11:00:50.842Z,77.99
2023-08-31T11:03:19.630Z,78.13
2023-08-31T11:05:53.432Z,77.98
2023-08-31T11:08:24.521Z,77.97
2023-08-31T11:10:54.020Z,78.20
2023-08-31T11:13:23.955Z,77.92
2023-08-31T11:15:52.656Z,77.62
2023-08-31T11:18:23.078Z,76.89
2023-08-31T11:20:51.950Z,76.84
2023-08-31T11:23:21.071Z,75.72
2023-08-31T11:25:51.286Z,76.05
2023-08-31T11:28:20.360Z,75.33
2023-08-31T11:30:50.413Z,75.73
2023-08-31T11:33:18.915Z,75.04
2023-08-31T11:35:47.375Z,73.72
2023-08-31T11:38:17.258Z,73.42
2023-08-31T11:40:46.396Z,73.16
2023-08-31T11:43:16.867Z,72.25
2023-08-31T11:45:45.666Z,71.60
2023-08-31T11:48:14.858Z,70.68
2023-08-31T11:50:43.957Z,69.76
2023-08-31T11:53:12.840Z,67.63
2023-08-31T11:55:52.388Z,65.71
2023-08-31T11:58:21.126Z,65.10
2023-08-31T12:00:57.224Z,62.64
2023-08-31T12:03:39.858Z,61.21
2023-08-31T12:06:15.529Z,60.34
2023-08-31T12:08:44.078Z,59.52
2023-08-31T12:11:12.866Z,59.43
2023-08-31T12:13:42.799Z,58.94
2023-08-31T12:16:14.875Z,58.48
2023-08-31T12:18:44.184Z,58.43
2023-08-31T12:21:12.650Z,57.29
2023-08-31T12:23:41.070Z,57.16
2023-08-31T12:26:12.595Z,56.23
2023-08-31T12:28:41.754Z,55.27
2023-08-31T12:31:10.497Z,55.27
2023-08-31T12:33:39.106Z,55.81
2023-08-31T12:36:07.842Z,55.21
2023-08-31T12:38:36.318Z,56.60
2023-08-31T12:41:05.125Z,55.97
2023-08-31T12:43:34.650Z,56.18
2023-08-31T12:46:05.058Z,56.19
2023-08-31T12:48:34.036Z,56.80
2023-08-31T12:51:02.825Z,57.83
2023-08-31T12:53:31.374Z,57.51
2023-08-31T12:56:00.266Z,57.72
2023-08-31T12:58:28.608Z,56.47
2023-08-31T13:00:59.814Z,57.22
2023-08-31T13:03:28.871Z,57.45
2023-08-31T13:05:58.283Z,57.27
2023-08-31T13:08:26.764Z,57.91
2023-08-31T13:10:56.018Z,58.23
2023-08-31T13:13:24.523Z,57.46
2023-08-31T13:15:53.464Z,57.31
2023-08-31T13:18:24.784Z,56.52
2023-08-31T13:20:54.008Z,57.16
2023-08-31T13:23:23.209Z,57.61
2023-08-31T13:25:52.437Z,58.38
2023-08-31T13:28:20.858Z,58.84
2023-08-31T13:30:51.318Z,59.06
2023-08-31T13:33:19.778Z,58.24
2023-08-31T13:35:48.248Z,58.80
2023-08-31T13:38:17.227Z,57.61
2023-08-31T13:40:45.926Z,57.17
2023-08-31T13:43:16.479Z,56.74
2023-08-31T13:45:44.970Z,56.91
2023-08-31T13:48:13.766Z,55.37
2023-08-31T13:50:42.798Z,55.64
2023-08-31T13:53:11.541Z,54.37
2023-08-31T13:55:42.454Z,52.59
2023-08-31T13:58:11.544Z,53.89
2023-08-31T14:00:42.520Z,53.11
2023-08-31T14:03:11.329Z,53.01
2023-08-31T14:05:40.080Z,53.34
2023-08-31T14:08:08.692Z,52.18
2023-08-31T14:10:41.016Z,52.24
2023-08-31T14:13:09.954Z,51.79
2023-08-31T14:15:44.557Z,51.63
2023-08-31T14:18:13.966Z,52.29
2023-08-31T14:20:42.630Z,51.53
2023-08-31T14:25:19.534Z,52.52
2023-08-31T14:27:52.188Z,52.05
2023-08-31T14:30:24.071Z,52.78
2023-08-31T14:32:56.070Z,53.42
2023-08-31T14:35:28.300Z,53.65
2023-08-31T14:38:00.387Z,52.27
2023-08-31T14:40:34.174Z,50.74
2023-08-31T14:43:06.582Z,51.73
2023-08-31T14:45:39.680Z,51.29
2023-08-31T14:48:12.910Z,50.45
2023-08-31T14:50:46.593Z,51.32
2023-08-31T14:53:18.454Z,50.51
2023-08-31T14:55:53.843Z,49.12
2023-08-31T14:58:26.076Z,48.57
2023-08-31T15:01:00.403Z,49.18
2023-08-31T15:03:32.635Z,50.41
2023-08-31T15:06:04.680Z,49.67
2023-08-31T15:08:41.644Z,49.00
2023-08-31T15:11:16.220Z,48.62
2023-08-31T15:13:48.137Z,49.03
2023-08-31T15:16:20.690Z,48.63
2023-08-31T15:18:52.949Z,49.29
2023-08-31T15:21:27.188Z,48.77
2023-08-31T15:23:59.134Z,48.64
2023-08-31T15:26:31.034Z,48.94
2023-08-31T15:29:05.193Z,47.04
2023-08-31T15:31:37.091Z,47.16
2023-08-31T15:34:11.770Z,47.24
2023-08-31T15:36:43.680Z,47.07
2023-08-31T15:39:15.772Z,46.68
2023-08-31T15:41:47.624Z,46.50
2023-08-31T15:44:21.807Z,46.84
2023-08-31T15:46:54.088Z,47.89
2023-08-31T15:49:26.964Z,47.54
2023-08-31T15:51:59.181Z,48.06
2023-08-31T15:54:31.695Z,47.90
2023-08-31T15:57:03.863Z,48.54
2023-08-31T15:59:35.897Z,48.49
2023-08-31T16:02:08.254Z,48.58
2023-08-31T16:04:40.132Z,48.76
2023-08-31T16:07:13.190Z,49.07
2023-08-31T16:09:51.984Z,49.32
2023-08-31T16:12:24.006Z,49.26
2023-08-31T16:14:57.685Z,48.55
2023-08-31T16:17:29.861Z,49.24
2023-08-31T16:20:01.832Z,48.55
2023-08-31T16:22:33.799Z,48.76
2023-08-31T16:25:11.089Z,47.95
2023-08-31T16:27:45.540Z,48.10
2023-08-31T16:30:18.066Z,48.05
2023-08-31T16:32:50.509Z,48.39
2023-08-31T16:35:22.536Z,48.81
2023-08-31T16:37:54.438Z,48.74
2023-08-31T16:40:26.408Z,49.14
2023-08-31T16:42:58.413Z,49.35
2023-08-31T16:45:32.737Z,49.41
2023-08-31T16:48:06.214Z,49.76
2023-08-31T16:50:39.081Z,50.46
2023-08-31T16:53:11.064Z,51.20
2023-08-31T16:55:43.951Z,51.93
2023-08-31T16:58:16.185Z,52.40
2023-08-31T17:00:48.316Z,52.90
2023-08-31T17:03:20.414Z,53.70
2023-08-31T17:05:55.868Z,54.54
2023-08-31T17:08:28.097Z,55.24
2023-08-31T17:11:00.357Z,56.00
2023-08-31T17:13:33.797Z,56.49
2023-08-31T17:16:12.630Z,57.51
2023-08-31T17:18:44.899Z,58.01
2023-08-31T17:21:16.827Z,58.31
2023-08-31T17:23:48.858Z,59.17
2023-08-31T17:26:27.943Z,59.73
2023-08-31T17:28:59.924Z,60.04
2023-08-31T17:31:32.143Z,60.20
2023-08-31T17:34:06.603Z,60.47
2023-08-31T17:36:38.983Z,61.14
2023-08-31T17:39:10.943Z,61.69
2023-08-31T17:41:42.968Z,61.94
2023-08-31T17:44:15.028Z,62.36
2023-08-31T17:46:46.957Z,62.87
2023-08-31T17:49:19.114Z,63.81
2023-08-31T17:51:51.009Z,64.14
2023-08-31T17:54:23.043Z,64.77
2023-08-31T17:56:55.038Z,65.12
2023-08-31T17:59:27.053Z,65.28
2023-08-31T18:02:00.828Z,65.95
2023-08-31T18:04:32.844Z,66.60
2023-08-31T18:07:06.300Z,66.93
2023-08-31T18:09:38.925Z,67.37
2023-08-31T18:12:11.702Z,67.70
2023-08-31T18:14:45.857Z,68.49
2023-08-31T18:17:18.315Z,68.90
2023-08-31T18:19:50.559Z,69.54
2023-08-31T18:22:22.396Z,69.90
2023-08-31T18:24:54.667Z,70.40
2023-08-31T18:27:27.695Z,71.01
2023-08-31T18:29:59.842Z,71.79
2023-08-31T18:34:26.809Z,72.11
2023-08-31T18:36:56.497Z,73.17
2023-08-31T18:39:26.503Z,74.03
2023-08-31T18:41:55.086Z,74.44
2023-08-31T18:44:24.850Z,74.52
2023-08-31T18:46:56.230Z,74.63
2023-08-31T18:49:27.661Z,74.84
2023-08-31T18:51:56.359Z,75.34
2023-08-31T18:54:27.133Z,75.40
2023-08-31T18:56:55.574Z,75.72
2023-08-31T18:59:24.086Z,75.77
2023-08-31T19:01:52.600Z,75.89
2023-08-31T19:04:21.317Z,76.00
2023-08-31T19:06:53.274Z,76.17
2023-08-31T19:09:21.812Z,76.27
2023-08-31T19:11:51.821Z,76.25
2023-08-31T19:14:22.052Z,76.40
2023-08-31T19:16:53.756Z,76.38
2023-08-31T19:19:22.688Z,76.73
2023-08-31T19:21:51.290Z,77.13
2023-08-31T19:24:19.862Z,77.13
2023-08-31T19:26:48.368Z,77.54
2023-08-31T19:29:17.721Z,77.31
2023-08-31T19:31:46.441Z,77.67
2023-08-31T19:34:15.012Z,77.99
2023-08-31T19:36:43.876Z,78.07
2023-08-31T19:39:12.386Z,78.07
2023-08-31T19:41:40.887Z,78.21
2023-08-31T19:44:09.188Z,78.24
2023-08-31T19:46:37.726Z,78.66
2023-08-31T19:49:06.336Z,79.01
2023-08-31T19:51:34.832Z,79.00
2023-08-31T19:54:05.219Z,79.13
2023-08-31T19:56:34.651Z,79.50
2023-08-31T19:59:03.143Z,79.86
2023-08-31T20:01:32.055Z,80.27
2023-08-31T20:04:00.853Z,80.50
2023-08-31T20:06:29.573Z,80.75
2023-08-31T20:08:58.106Z,80.79
2023-08-31T20:11:26.507Z,80.77
2023-08-31T20:13:56.752Z,80.71
2023-08-31T20:16:26.026Z,80.88
2023-08-31T20:18:56.791Z,81.58
2023-08-31T20:21:25.566Z,81.97
2023-08-31T20:23:54.259Z,82.48
2023-08-31T20:26:22.754Z,82.57
2023-08-31T20:28:51.418Z,82.32
2023-08-31T20:31:19.981Z,82.53
2023-08-31T20:33:48.489Z,82.66
2023-08-31T20:36:16.995Z,82.80
2023-08-31T20:38:45.673Z,82.81
2023-08-31T20:41:17.736Z,83.28
2023-08-31T20:43:46.402Z,83.65
2023-08-31T20:46:15.011Z,83.82
2023-08-31T20:50:20.540Z,83.96
2023-08-31T20:52:53.767Z,83.84
2023-08-31T20:55:30.113Z,83.89
2023-08-31T20:58:52.268Z,84.26
2023-08-31T21:02:20.124Z,84.35
2023-08-31T21:04:49.398Z,84.25
2023-08-31T21:07:42.570Z,84.39
2023-08-31T21:10:14.467Z,84.61
2023-08-31T21:12:46.436Z,85.01
2023-08-31T21:15:18.436Z,85.04
2023-08-31T21:17:50.518Z,84.96
2023-08-31T21:20:22.697Z,84.67
2023-08-31T21:22:57.370Z,85.28
2023-08-31T21:25:29.891Z,86.59
2023-08-31T21:28:01.777Z,87.37
2023-08-31T21:30:37.743Z,86.85
2023-08-31T21:33:10.212Z,86.86
2023-08-31T21:35:47.173Z,86.89
2023-08-31T21:38:19.445Z,86.76
2023-08-31T21:40:51.698Z,87.05
2023-08-31T21:43:23.968Z,86.96
2023-08-31T21:45:59.008Z,87.24
2023-08-31T21:48:31.634Z,87.01
2023-08-31T21:51:03.681Z,86.85
2023-08-31T21:53:35.711Z,86.38
2023-08-31T21:56:12.230Z,86.46
2023-08-31T21:58:44.070Z,86.20
2023-08-31T22:01:16.360Z,85.99
2023-08-31T22:03:48.421Z,86.49
2023-08-31T22:06:21.004Z,86.39
2023-08-31T22:08:54.192Z,85.94
2023-08-31T22:11:26.641Z,86.26
2023-08-31T22:14:01.771Z,86.16
2023-08-31T22:16:34.100Z,86.10
2023-08-31T22:19:07.675Z,85.96
2023-08-31T22:21:41.015Z,85.95
2023-08-31T22:24:13.250Z,85.97
2023-08-31T22:26:47.820Z,86.57
2023-08-31T22:29:20.070Z,86.36
2023-08-31T22:31:52.574Z,86.49
2023-08-31T22:34:24.589Z,86.51
2023-08-31T22:36:56.423Z,86.47
2023-08-31T22:39:28.312Z,86.48
2023-08-31T22:42:00.299Z,86.10
2023-08-31T22:44:32.469Z,86.43
2023-08-31T22:48:34.878Z,85.89
2023-08-31T22:51:04.737Z,85.91
2023-08-31T22:53:33.534Z,85.71
2023-08-31T22:56:03.269Z,85.62
2023-08-31T22:58:32.055Z,85.39
2023-08-31T23:01:00.569Z,85.84
2023-08-31T23:03:31.703Z,85.98
2023-08-31T23:06:00.185Z,86.29
2023-08-31T23:08:29.348Z,86.42
2023-08-31T23:11:01.655Z,86.40
2023-08-31T23:13:30.371Z,86.43
2023-08-31T23:16:03.716Z,86.12
2023-08-31T23:18:32.489Z,86.00
2023-08-31T23:21:06.177Z,86.04
2023-08-31T23:23:35.810Z,86.45
2023-08-31T23:26:04.748Z,86.90
2023-08-31T23:28:33.445Z,86.71
2023-08-31T23:31:02.018Z,86.94
2023-08-31T23:33:31.461Z,86.94
2023-08-31T23:35:59.946Z,86.87
2023-08-31T23:38:28.670Z,87.03
2023-08-31T23:40:58.059Z,86.82
2023-08-31T23:43:26.580Z,86.96
2023-08-31T23:45:55.676Z,87.40
2023-08-31T23:48:24.544Z,87.80
2023-08-31T23:50:53.300Z,87.68
2023-08-31T23:53:21.800Z,87.68
2023-08-31T23:55:50.416Z,87.87
2023-08-31T23:58:19.398Z,87.69
